Time;durP1;ratioP1;P1;durP2;ratioP2;P2;SDS_P1;SDS_P2;PMS_P1;PMS_P2;Temp;Humidity;BMP_temperature;BMP_pressure;BME280_temperature;BME280_humidity;BME280_pressure;Samples;Min_cycle;Max_cycle;Signal;HPM_P1;HPM_P2
2022/09/10 00:00:18;;;;;;;;;;;;;;;23.02;56.15;100502.30;2257194;79;50422;-73
2022/09/10 00:03:20;;;;;;;;;;;;;;;23.01;56.02;100493.88;2256961;79;50107;-73
2022/09/10 00:06:24;;;;;;;;;;;;;;;23.03;55.95;100498.53;2255951;77;51559;-73
2022/09/10 00:09:24;;;;;;;;;;;;;;;23.02;55.94;100496.89;2273405;77;22699;-73
2022/09/10 00:12:26;;;;;;;;;;;;;;;23.02;55.86;100499.59;2248588;79;50487;-73
2022/09/10 00:15:28;;;;;;;;;;;;;;;23.02;55.85;100498.25;2248337;78;50402;-74
2022/09/10 00:18:29;;;;;;;;;;;;;;;23.01;55.82;100496.05;2221115;79;49663;-76
2022/09/10 00:21:31;;;;;;;;;;;;;;;23.00;55.86;100489.53;2223860;79;50667;-73
2022/09/10 00:24:33;;;;;;;;;;;;;;;23.02;55.80;100494.20;2248361;78;51527;-74
2022/09/10 00:27:35;;;;;;;;;;;;;;;23.01;55.77;100483.08;2223896;79;50319;-74
2022/09/10 00:30:40;;;;;;;;;;;;;;;23.01;55.77;100490.64;2248637;79;51762;-73
2022/09/10 00:33:42;;;;;;;;;;;;;;;23.01;55.79;100487.95;2248411;78;50770;-72
2022/09/10 00:36:43;;;;;;;;;;;;;;;23.01;55.74;100487.95;2223682;79;53513;-72
2022/09/10 00:39:46;;;;;;;;;;;;;;;23.01;55.77;100485.78;2264162;77;51500;-76
2022/09/10 00:42:47;;;;;;;;;;;;;;;23.00;55.74;100483.61;2245395;77;50308;-74
2022/09/10 00:45:51;;;;;;;;;;;;;;;23.00;55.84;100481.44;2269567;77;51581;-73
2022/09/10 00:48:53;;;;;;;;;;;;;;;22.99;55.85;100476.56;2294025;76;50384;-73
2022/09/10 00:51:54;;;;;;;;;;;;;;;23.00;56.00;100481.44;2294914;77;51464;-73
2022/09/10 00:54:56;;;;;;;;;;;;;;;22.99;55.88;100483.31;2271009;77;49597;-72
2022/09/10 00:57:59;;;;;;;;;;;;;;;22.99;55.91;100475.72;2294908;77;50295;-72
2022/09/10 01:01:00;;;;;;;;;;;;;;;22.98;55.90;100478.94;2294929;77;50691;-75
2022/09/10 01:04:03;;;;;;;;;;;;;;;23.00;55.80;100477.39;2294683;76;50461;-74
2022/09/10 01:07:05;;;;;;;;;;;;;;;23.00;55.84;100481.44;2268383;77;50148;-77
2022/09/10 01:10:08;;;;;;;;;;;;;;;22.98;55.90;100476.24;2295015;77;50382;-75
2022/09/10 01:13:12;;;;;;;;;;;;;;;22.98;55.81;100477.59;2294881;77;51572;-75
2022/09/10 01:16:28;;;;;;;;;;;;;;;22.98;55.93;100474.08;2270637;77;49691;-76
2022/09/10 01:19:35;;;;;;;;;;;;;;;22.98;55.82;100471.37;2271072;77;50149;-74
2022/09/10 01:22:56;;;;;;;;;;;;;;;22.93;56.29;100482.78;2294918;77;50380;-75
2022/09/10 01:26:11;;;;;;;;;;;;;;;22.93;56.26;100481.43;2294657;76;50766;-73
2022/09/10 01:29:14;;;;;;;;;;;;;;;22.93;56.33;100483.30;2294833;77;50509;-74
2022/09/10 01:32:25;;;;;;;;;;;;;;;22.91;56.37;100481.34;2271028;77;50577;-73
2022/09/10 01:35:31;;;;;;;;;;;;;;;22.91;56.34;100479.99;2294448;76;50376;-76
2022/09/10 01:38:34;;;;;;;;;;;;;;;22.93;56.16;100477.91;2284977;77;51547;-74
2022/09/10 01:41:35;;;;;;;;;;;;;;;22.91;56.31;100478.11;2259986;78;50290;-75
2022/09/10 01:44:44;;;;;;;;;;;;;;;22.90;56.39;100481.05;2225329;78;49683;-74
2022/09/10 01:48:03;;;;;;;;;;;;;;;22.91;56.47;100488.08;2247754;78;50388;-75
2022/09/10 01:51:15;;;;;;;;;;;;;;;22.89;56.44;100483.42;2249625;79;50671;-74
2022/09/10 01:54:18;;;;;;;;;;;;;;;22.91;56.40;100482.69;2249292;77;51589;-74
2022/09/10 01:57:33;;;;;;;;;;;;;;;22.93;56.33;100481.95;2224422;79;52510;-73
2022/09/10 02:00:35;;;;;;;;;;;;;;;22.90;56.38;100486.44;2249532;77;51626;-73
2022/09/10 02:03:38;;;;;;;;;;;;;;;22.87;56.41;100475.56;2249463;78;50442;-74
2022/09/10 02:06:39;;;;;;;;;;;;;;;22.91;56.26;100476.77;2257638;77;51578;-74
2022/09/10 02:09:41;;;;;;;;;;;;;;;22.92;56.17;100477.09;2240947;79;51383;-74
2022/09/10 02:12:43;;;;;;;;;;;;;;;22.95;56.08;100486.62;2248904;78;51603;-73
2022/09/10 02:15:44;;;;;;;;;;;;;;;22.95;56.08;100478.53;2247840;78;51595;-74
2022/09/10 02:18:46;;;;;;;;;;;;;;;22.95;56.11;100486.62;2246481;79;51555;-75
2022/09/10 02:21:48;;;;;;;;;;;;;;;22.95;56.08;100482.58;2223166;78;50977;-74
2022/09/10 02:24:49;;;;;;;;;;;;;;;22.93;56.08;100486.83;2246155;78;51539;-73
2022/09/10 02:27:51;;;;;;;;;;;;;;;22.95;56.04;100483.92;2246407;79;50746;-75
2022/09/10 02:30:53;;;;;;;;;;;;;;;22.93;56.09;100485.47;2246365;78;51439;-75
2022/09/10 02:33:55;;;;;;;;;;;;;;;22.94;56.01;100495.74;2246564;78;50394;-75
2022/09/10 02:36:57;;;;;;;;;;;;;;;22.94;56.01;100497.94;2247313;79;50208;-75
2022/09/10 02:39:58;;;;;;;;;;;;;;;22.96;55.95;100503.11;2260451;78;50445;-74
2022/09/10 02:43:00;;;;;;;;;;;;;;;22.95;55.92;100502.81;2283870;78;50414;-76
2022/09/10 02:46:02;;;;;;;;;;;;;;;22.94;55.89;100498.44;2233919;78;50095;-75
2022/09/10 02:49:03;;;;;;;;;;;;;;;22.94;55.86;100498.44;2258986;78;50275;-75
2022/09/10 02:52:05;;;;;;;;;;;;;;;22.95;55.81;100504.16;2258956;78;50410;-75
2022/09/10 02:55:07;;;;;;;;;;;;;;;22.92;56.10;100505.42;2283540;76;50248;-76
2022/09/10 02:58:09;;;;;;;;;;;;;;;22.93;55.85;100503.02;2260016;78;50983;-75
2022/09/10 03:01:13;;;;;;;;;;;;;;;22.93;55.79;100498.97;2283740;78;51504;-75
2022/09/10 03:04:14;;;;;;;;;;;;;;;22.92;55.85;100502.72;2234802;79;23088;-75
2022/09/10 03:07:18;;;;;;;;;;;;;;;22.92;55.97;100505.95;2261717;78;51721;-74
2022/09/10 03:10:19;;;;;;;;;;;;;;;22.91;56.11;100499.70;2281023;78;22279;-75
2022/09/10 03:13:21;;;;;;;;;;;;;;;22.90;56.22;100498.05;2259456;78;50496;-74
2022/09/10 03:16:23;;;;;;;;;;;;;;;22.89;56.15;100499.61;2287138;76;50751;-74
2022/09/10 03:19:24;;;;;;;;;;;;;;;22.91;56.09;100497.53;2259693;78;50415;-75
2022/09/10 03:22:27;;;;;;;;;;;;;;;22.90;56.09;100499.93;2235148;78;51426;-75
2022/09/10 03:25:29;;;;;;;;;;;;;;;22.89;56.10;100505.86;2286897;76;51535;-76
2022/09/10 03:28:31;;;;;;;;;;;;;;;22.88;56.08;100500.13;2287204;78;51577;-76
2022/09/10 03:31:34;;;;;;;;;;;;;;;22.91;55.98;100498.88;2260049;78;49978;-76
2022/09/10 03:34:36;;;;;;;;;;;;;;;22.91;55.84;100496.17;2235307;78;50954;-75
2022/09/10 03:37:38;;;;;;;;;;;;;;;22.90;55.83;100496.70;2280111;77;51504;-75
2022/09/10 03:40:40;;;;;;;;;;;;;;;22.90;55.85;100492.66;2281173;78;51486;-75
2022/09/10 03:43:42;;;;;;;;;;;;;;;22.91;55.79;100492.13;2283694;76;50133;-73
2022/09/10 03:46:44;;;;;;;;;;;;;;;22.91;55.79;100490.78;2260071;78;50100;-75
2022/09/10 03:49:46;;;;;;;;;;;;;;;22.90;55.73;100485.09;2283914;78;50492;-76
2022/09/10 03:52:47;;;;;;;;;;;;;;;22.90;55.76;100485.09;2258927;78;52397;-76
2022/09/10 03:55:49;;;;;;;;;;;;;;;22.89;55.79;100483.42;2258536;78;50424;-75
2022/09/10 03:58:51;;;;;;;;;;;;;;;22.89;55.78;100482.06;2260302;78;51089;-76
2022/09/10 04:01:52;;;;;;;;;;;;;;;22.90;55.79;100485.09;2258786;77;51576;-76
2022/09/10 04:04:54;;;;;;;;;;;;;;;22.85;55.92;100478.98;2259606;77;51515;-76
2022/09/10 04:08:00;;;;;;;;;;;;;;;22.87;55.88;100482.83;2239845;77;50662;-75
2022/09/10 04:11:00;;;;;;;;;;;;;;;22.88;55.90;100480.42;2249151;78;22446;-76
2022/09/10 04:14:02;;;;;;;;;;;;;;;22.86;55.97;100487.91;2248676;79;51496;-75
2022/09/10 04:17:04;;;;;;;;;;;;;;;22.87;56.10;100489.58;2249264;79;50723;-76
2022/09/10 04:20:06;;;;;;;;;;;;;;;22.86;56.07;100489.25;2249321;79;50331;-76
2022/09/10 04:23:07;;;;;;;;;;;;;;;22.85;56.14;100487.61;2223965;78;51022;-76
2022/09/10 04:26:16;;;;;;;;;;;;;;;22.86;56.10;100483.86;2249015;79;50714;-75
2022/09/10 04:29:18;;;;;;;;;;;;;;;22.85;56.11;100484.91;2249340;79;51531;-76
2022/09/10 04:32:19;;;;;;;;;;;;;;;22.86;56.06;100490.59;2247338;78;51515;-74
2022/09/10 04:35:21;;;;;;;;;;;;;;;22.85;56.05;100493.83;2223393;79;52512;-78
2022/09/10 04:38:22;;;;;;;;;;;;;;;22.81;56.17;100497.98;2266774;77;51453;-79
2022/09/10 04:41:24;;;;;;;;;;;;;;;22.83;56.03;100490.51;2230217;78;49921;-78
2022/09/10 04:44:26;;;;;;;;;;;;;;;22.87;56.10;100489.05;2249913;78;50246;-78
2022/09/10 04:47:28;;;;;;;;;;;;;;;22.81;56.32;100494.79;2225088;79;51401;-79
2022/09/10 04:50:29;;;;;;;;;;;;;;;22.79;56.36;100492.82;2248244;79;50200;-78
2022/09/10 04:53:33;;;;;;;;;;;;;;;22.80;56.23;100494.47;2247799;78;50363;-78
2022/09/10 04:56:35;;;;;;;;;;;;;;;22.83;54.57;100491.86;2249122;78;52361;-79
2022/09/10 04:59:37;;;;;;;;;;;;;;;22.76;52.38;100493.75;2223365;79;49708;-78
2022/09/10 05:02:38;;;;;;;;;;;;;;;22.67;53.26;100501.80;2248363;79;50375;-78
2022/09/10 05:05:46;;;;;;;;;;;;;;;22.69;53.62;100496.50;2248276;78;50671;-78
2022/09/10 05:08:43;;;;;;;;;;;;;;;22.71;53.75;100497.12;2218954;78;22460;-78
2022/09/10 05:11:45;;;;;;;;;;;;;;;22.73;54.02;100503.62;2182680;79;52418;-78
2022/09/10 05:14:47;;;;;;;;;;;;;;;22.73;53.97;100500.93;2243409;79;50307;-77
2022/09/10 05:17:49;;;;;;;;;;;;;;;22.73;54.04;100505.80;2244003;79;51527;-78
2022/09/10 05:20:51;;;;;;;;;;;;;;;22.73;54.02;100500.41;2243953;79;51567;-77
2022/09/10 05:23:52;;;;;;;;;;;;;;;22.73;54.09;100507.15;2220705;79;51981;-77
2022/09/10 05:26:55;;;;;;;;;;;;;;;22.74;54.17;100499.38;2244006;79;51629;-78
2022/09/10 05:29:58;;;;;;;;;;;;;;;22.69;54.44;100504.59;2243704;79;50157;-79
2022/09/10 05:33:00;;;;;;;;;;;;;;;22.71;54.53;100496.27;2243889;79;50768;-77
2022/09/10 05:36:02;;;;;;;;;;;;;;;22.74;54.32;100502.08;2222007;78;50087;-79
2022/09/10 05:39:03;;;;;;;;;;;;;;;22.75;54.42;100503.72;2246370;78;50225;-79
2022/09/10 05:42:06;;;;;;;;;;;;;;;22.76;54.43;100502.70;2274414;78;51356;-77
2022/09/10 05:45:08;;;;;;;;;;;;;;;22.80;54.41;100499.86;2249338;78;50314;-78
2022/09/10 05:48:10;;;;;;;;;;;;;;;22.88;54.36;100505.53;2254764;78;50105;-79
2022/09/10 05:51:12;;;;;;;;;;;;;;;22.94;54.28;100507.39;2236332;79;51521;-78
2022/09/10 05:54:13;;;;;;;;;;;;;;;22.99;54.23;100510.80;2263701;78;53873;-78
2022/09/10 05:57:15;;;;;;;;;;;;;;;23.02;54.23;100508.52;2212994;80;51230;-78
2022/09/10 06:00:16;;;;;;;;;;;;;;;23.07;54.21;100504.31;2217774;78;50108;-78
2022/09/10 06:03:18;;;;;;;;;;;;;;;23.09;54.15;100509.80;2246629;79;51574;-76
2022/09/10 06:06:20;;;;;;;;;;;;;;;23.13;54.12;100502.13;2249136;78;51532;-79
2022/09/10 06:09:22;;;;;;;;;;;;;;;23.14;54.08;100514.56;2278754;77;49814;-78
2022/09/10 06:12:23;;;;;;;;;;;;;;;23.16;54.06;100507.08;2224093;79;51948;-77
2022/09/10 06:15:25;;;;;;;;;;;;;;;23.19;54.13;100506.11;2249448;79;50244;-77
2022/09/10 06:18:27;;;;;;;;;;;;;;;23.23;54.24;100515.45;2222817;79;52574;-77
2022/09/10 06:21:28;;;;;;;;;;;;;;;23.26;54.27;100519.05;2248295;79;50360;-80
2022/09/10 06:24:30;;;;;;;;;;;;;;;23.29;54.26;100516.97;2248734;78;50379;-81
2022/09/10 06:27:32;;;;;;;;;;;;;;;23.34;54.33;100525.25;2223319;79;51951;-80
2022/09/10 06:30:34;;;;;;;;;;;;;;;23.41;54.26;100531.44;2247611;79;49773;-81
2022/09/10 06:33:35;;;;;;;;;;;;;;;23.50;54.10;100539.56;2249064;78;51466;-77
2022/09/10 06:36:37;;;;;;;;;;;;;;;23.55;53.99;100538.37;2249001;79;50668;-77
2022/09/10 06:39:38;;;;;;;;;;;;;;;23.59;53.91;100536.91;2236096;79;51776;-77
2022/09/10 06:42:40;;;;;;;;;;;;;;;23.61;53.83;100542.92;2247196;79;50347;-77
2022/09/10 06:45:41;;;;;;;;;;;;;;;23.64;53.76;100535.73;2247225;78;50739;-77
2022/09/10 06:48:44;;;;;;;;;;;;;;;23.67;53.75;100533.94;2247030;79;51544;-77
2022/09/10 06:51:45;;;;;;;;;;;;;;;23.67;53.67;100535.81;2223990;78;49642;-77
2022/09/10 06:54:47;;;;;;;;;;;;;;;23.67;53.66;100537.16;2246703;78;50336;-77
2022/09/10 06:57:48;;;;;;;;;;;;;;;23.69;53.67;100529.67;2246657;79;50713;-77
2022/09/10 07:00:50;;;;;;;;;;;;;;;23.73;53.61;100536.83;2246593;79;51494;-77
2022/09/10 07:03:55;;;;;;;;;;;;;;;23.75;53.56;100532.05;2223706;78;50083;-77
2022/09/10 07:06:57;;;;;;;;;;;;;;;23.78;53.45;100544.58;2235171;78;50349;-77
2022/09/10 07:10:00;;;;;;;;;;;;;;;23.80;53.41;100543.02;2247511;77;51495;-76
2022/09/10 07:13:01;;;;;;;;;;;;;;;23.80;53.40;100534.91;2248681;79;50532;-78
2022/09/10 07:16:03;;;;;;;;;;;;;;;23.82;53.31;100526.06;2249136;79;51611;-76
2022/09/10 07:19:04;;;;;;;;;;;;;;;23.83;53.35;100535.81;2248514;79;51678;-77
2022/09/10 07:22:06;;;;;;;;;;;;;;;23.85;53.30;100539.13;2251318;77;51531;-77
2022/09/10 07:25:08;;;;;;;;;;;;;;;23.85;53.32;100541.84;2284013;76;50356;-77
2022/09/10 07:28:12;;;;;;;;;;;;;;;23.84;53.27;100527.50;2260575;78;51080;-77
2022/09/10 07:31:17;;;;;;;;;;;;;;;23.86;53.21;100537.55;2257184;78;50321;-78
2022/09/10 07:34:19;;;;;;;;;;;;;;;23.86;53.18;100536.19;2249606;78;51488;-77
2022/09/10 07:37:21;;;;;;;;;;;;;;;23.87;53.16;100537.05;2238882;77;50302;-77
2022/09/10 07:40:23;;;;;;;;;;;;;;;23.87;53.12;100531.11;2223915;79;50962;-77
2022/09/10 07:43:24;;;;;;;;;;;;;;;23.86;53.08;100534.84;2248077;79;50250;-77
2022/09/10 07:46:27;;;;;;;;;;;;;;;23.86;53.02;100532.14;2246869;79;50465;-76
2022/09/10 07:49:29;;;;;;;;;;;;;;;23.87;52.75;100542.45;2246814;79;51530;-77
2022/09/10 07:52:30;;;;;;;;;;;;;;;23.83;51.76;100536.64;2223545;79;50742;-76
2022/09/10 07:55:32;;;;;;;;;;;;;;;23.80;51.45;100541.66;2246443;78;51530;-76
2022/09/10 07:58:34;;;;;;;;;;;;;;;23.88;51.00;100546.79;2249243;78;52311;-76
2022/09/10 08:01:36;;;;;;;;;;;;;;;23.94;50.93;100547.25;2263256;77;50406;-74
2022/09/10 08:04:38;;;;;;;;;;;;;;;23.89;50.77;100545.73;2223917;79;50144;-77
2022/09/10 08:07:40;;;;;;;;;;;;;;;23.76;50.94;100544.49;2237368;77;51659;-77
2022/09/10 08:10:41;;;;;;;;;;;;;;;23.77;50.58;100539.41;2291714;77;50720;-77
2022/09/10 08:13:44;;;;;;;;;;;;;;;23.77;50.35;100546.16;2294552;76;51506;-74
2022/09/10 08:16:46;;;;;;;;;;;;;;;23.73;50.20;100549.81;2294738;77;50435;-74
2022/09/10 08:19:49;;;;;;;;;;;;;;;23.72;49.87;100548.17;2294874;77;50386;-76
2022/09/10 08:22:50;;;;;;;;;;;;;;;23.73;50.13;100547.11;2269911;77;24477;-77
2022/09/10 08:25:52;;;;;;;;;;;;;;;23.70;50.43;100548.34;2294682;76;51519;-77
2022/09/10 08:28:54;;;;;;;;;;;;;;;23.69;50.69;100547.23;2271235;77;51040;-77
2022/09/10 08:31:57;;;;;;;;;;;;;;;23.68;50.98;100551.78;2294804;77;51555;-76
2022/09/10 08:34:58;;;;;;;;;;;;;;;23.67;51.25;100547.44;2294520;76;51627;-75
2022/09/10 08:38:00;;;;;;;;;;;;;;;23.67;51.37;100549.32;2275805;77;51502;-77
2022/09/10 08:41:02;;;;;;;;;;;;;;;23.66;51.47;100555.25;2269567;77;51515;-77
2022/09/10 08:44:04;;;;;;;;;;;;;;;23.64;51.60;100557.87;2294106;76;51640;-76
2022/09/10 08:47:12;;;;;;;;;;;;;;;23.61;51.75;100561.84;2294781;77;50421;-77
2022/09/10 08:50:24;;;;;;;;;;;;;;;23.61;51.85;100560.48;2295079;77;51537;-76
2022/09/10 08:53:31;;;;;;;;;;;;;;;23.60;51.93;100560.16;2270908;77;49712;-76
2022/09/10 08:56:33;;;;;;;;;;;;;;;23.59;52.01;100553.11;2295078;77;51521;-77
2022/09/10 08:59:36;;;;;;;;;;;;;;;23.59;52.08;100555.81;2295438;77;50377;-78
2022/09/10 09:02:52;;;;;;;;;;;;;;;23.57;52.21;100556.55;2294803;77;50673;-78
2022/09/10 09:05:58;;;;;;;;;;;;;;;23.54;52.29;100558.34;2270815;77;49638;-77
2022/09/10 09:08:59;;;;;;;;;;;;;;;23.55;52.40;100554.59;2224633;78;51519;-77
2022/09/10 09:12:03;;;;;;;;;;;;;;;23.55;52.52;100559.98;2212248;80;50380;-76
2022/09/10 09:15:12;;;;;;;;;;;;;;;23.55;52.51;100553.23;2202600;79;50403;-75
2022/09/10 09:18:18;;;;;;;;;;;;;;;23.53;52.59;100558.05;2187646;80;51365;-76
2022/09/10 09:21:24;;;;;;;;;;;;;;;23.51;52.64;100552.03;2211930;80;51702;-77
2022/09/10 09:24:30;;;;;;;;;;;;;;;23.51;52.69;100552.03;2211401;78;51498;-76
2022/09/10 09:27:33;;;;;;;;;;;;;;;23.45;53.13;100547.48;2241246;79;52407;-77
2022/09/10 09:30:36;;;;;;;;;;;;;;;23.47;53.28;100551.63;2222905;78;50190;-75
2022/09/10 09:33:37;;;;;;;;;;;;;;;23.48;53.48;100551.12;2248237;78;50439;-76
2022/09/10 09:36:43;;;;;;;;;;;;;;;23.48;53.56;100554.65;2248138;78;50755;-76
2022/09/10 09:39:47;;;;;;;;;;;;;;;23.46;53.64;100543.76;2279392;77;51467;-75
2022/09/10 09:42:52;;;;;;;;;;;;;;;23.47;53.72;100545.41;2270861;77;51033;-76
2022/09/10 09:45:54;;;;;;;;;;;;;;;23.44;53.79;100551.25;2294462;76;50768;-75
2022/09/10 09:48:56;;;;;;;;;;;;;;;23.48;53.68;100551.95;2294540;77;51360;-75
2022/09/10 09:51:58;;;;;;;;;;;;;;;23.50;53.47;100548.19;2294391;77;51500;-75
2022/09/10 09:55:01;;;;;;;;;;;;;;;23.48;53.39;100549.25;2245078;77;50970;-75
2022/09/10 09:58:21;;;;;;;;;;;;;;;23.51;53.27;100552.56;2294671;77;50859;-76
2022/09/10 10:01:22;;;;;;;;;;;;;;;23.46;53.26;100539.18;2294887;77;51593;-76
2022/09/10 10:04:25;;;;;;;;;;;;;;;23.47;53.21;100542.17;2261342;77;50791;-76
2022/09/10 10:07:30;;;;;;;;;;;;;;;23.43;53.35;100542.85;2242661;78;52622;-76
2022/09/10 10:10:30;;;;;;;;;;;;;;;23.46;53.28;100532.95;2293637;77;22804;-76
2022/09/10 10:13:36;;;;;;;;;;;;;;;23.42;53.36;100537.95;2266541;77;51499;-74
2022/09/10 10:16:38;;;;;;;;;;;;;;;23.43;53.39;100532.05;2258060;78;50756;-76
2022/09/10 10:19:39;;;;;;;;;;;;;;;23.43;53.48;100530.70;2204758;78;49498;-77
2022/09/10 10:22:42;;;;;;;;;;;;;;;23.43;53.41;100526.65;2260014;78;50779;-76
2022/09/10 10:25:47;;;;;;;;;;;;;;;23.44;53.41;100529.11;2259674;77;50465;-76
2022/09/10 10:28:47;;;;;;;;;;;;;;;23.44;53.41;100530.99;2228646;78;22354;-75
2022/09/10 10:31:49;;;;;;;;;;;;;;;23.46;53.37;100527.55;2228265;78;50387;-77
2022/09/10 10:34:58;;;;;;;;;;;;;;;23.48;53.34;100535.74;2267062;78;51558;-76
2022/09/10 10:38:19;;;;;;;;;;;;;;;23.44;53.43;100531.81;2259986;77;51470;-75
2022/09/10 10:41:28;;;;;;;;;;;;;;;23.40;53.95;100522.52;2294493;77;51547;-75
2022/09/10 10:44:48;;;;;;;;;;;;;;;23.41;54.16;100524.16;2270737;77;51280;-74
2022/09/10 10:47:52;;;;;;;;;;;;;;;23.39;54.28;100525.42;2295038;77;51481;-74
2022/09/10 10:50:55;;;;;;;;;;;;;;;23.42;54.20;100526.33;2294749;77;51589;-77
2022/09/10 10:54:13;;;;;;;;;;;;;;;23.42;54.16;100519.58;2294454;76;51547;-75
2022/09/10 10:57:29;;;;;;;;;;;;;;;23.40;54.23;100535.16;2262000;78;51832;-74
2022/09/10 11:00:31;;;;;;;;;;;;;;;23.39;54.18;100520.02;2286441;77;51478;-74
2022/09/10 11:03:43;;;;;;;;;;;;;;;23.37;54.29;100516.70;2268971;78;50739;-75
2022/09/10 11:06:46;;;;;;;;;;;;;;;23.37;54.24;100516.70;2250202;79;50431;-75
2022/09/10 11:09:59;;;;;;;;;;;;;;;23.36;54.25;100523.16;2270634;77;51579;-75
2022/09/10 11:13:02;;;;;;;;;;;;;;;23.36;54.21;100513.18;2262441;77;50603;-76
2022/09/10 11:16:05;;;;;;;;;;;;;;;23.35;54.20;100515.59;2289724;76;50250;-75
2022/09/10 11:19:17;;;;;;;;;;;;;;;23.40;54.03;100513.56;2293722;77;50456;-76
2022/09/10 11:22:21;;;;;;;;;;;;;;;23.39;54.00;100521.37;2270622;77;52731;-76
2022/09/10 11:25:26;;;;;;;;;;;;;;;23.38;53.96;100519.73;2270750;77;53045;-76
2022/09/10 11:28:30;;;;;;;;;;;;;;;23.38;53.91;100513.80;2294940;77;51392;-75
2022/09/10 11:31:42;;;;;;;;;;;;;;;23.39;53.85;100514.62;2293261;76;51449;-75
2022/09/10 11:34:46;;;;;;;;;;;;;;;23.38;53.78;100519.20;2269288;77;52909;-75
2022/09/10 11:37:52;;;;;;;;;;;;;;;23.38;53.78;100512.45;2255212;77;50183;-76
2022/09/10 11:41:12;;;;;;;;;;;;;;;23.36;53.80;100515.88;2279816;77;50290;-74
2022/09/10 11:44:18;;;;;;;;;;;;;;;23.35;53.81;100516.09;2294629;76;50676;-74
2022/09/10 11:47:27;;;;;;;;;;;;;;;23.35;53.80;100517.44;2268965;77;51104;-74
2022/09/10 11:50:33;;;;;;;;;;;;;;;23.34;53.82;100511.74;2295007;77;50389;-74
2022/09/10 11:53:35;;;;;;;;;;;;;;;23.33;53.81;100514.15;2294699;76;50477;-75
2022/09/10 11:56:48;;;;;;;;;;;;;;;23.32;53.80;100507.08;2294536;77;51514;-75
2022/09/10 12:00:10;;;;;;;;;;;;;;;23.32;53.79;100509.25;2271057;77;50175;-72
2022/09/10 12:03:15;;;;;;;;;;;;;;;23.34;53.75;100503.64;2258513;77;22748;-73
2022/09/10 12:06:25;;;;;;;;;;;;;;;23.33;53.73;100502.00;2263026;77;50465;-73
2022/09/10 12:09:45;;;;;;;;;;;;;;;23.29;53.78;100498.89;2281731;77;50570;-74
2022/09/10 12:12:52;;;;;;;;;;;;;;;23.29;53.79;100502.13;2294342;77;50738;-74
2022/09/10 12:15:52;;;;;;;;;;;;;;;23.27;53.85;100491.52;2294347;76;22278;-74
2022/09/10 12:18:53;;;;;;;;;;;;;;;23.26;53.81;100492.05;2270059;77;51539;-74
2022/09/10 12:22:00;;;;;;;;;;;;;;;23.29;53.83;100488.63;2259999;78;50328;-74
2022/09/10 12:25:02;;;;;;;;;;;;;;;23.30;53.76;100487.06;2227759;77;52556;-74
2022/09/10 12:28:06;;;;;;;;;;;;;;;23.29;54.13;100483.22;2260331;77;51596;-74
2022/09/10 12:31:08;;;;;;;;;;;;;;;23.32;53.83;100479.55;2286982;78;24563;-74
2022/09/10 12:34:17;;;;;;;;;;;;;;;23.33;53.79;100481.75;2286173;76;51522;-74
2022/09/10 12:37:20;;;;;;;;;;;;;;;23.33;53.80;100472.30;2256718;78;50383;-74
2022/09/10 12:40:25;;;;;;;;;;;;;;;23.33;53.82;100479.05;2280739;77;51574;-74
2022/09/10 12:43:42;;;;;;;;;;;;;;;23.31;53.84;100486.54;2286741;77;50758;-73
2022/09/10 12:46:43;;;;;;;;;;;;;;;23.31;53.85;100478.44;2294559;77;50691;-74
2022/09/10 12:49:49;;;;;;;;;;;;;;;23.32;53.93;100482.25;2270590;77;50937;-73
2022/09/10 12:52:52;;;;;;;;;;;;;;;23.33;54.28;100475.00;2294562;77;50447;-73
2022/09/10 12:56:12;;;;;;;;;;;;;;;23.35;53.96;100470.19;2294152;76;50438;-73
2022/09/10 12:59:27;;;;;;;;;;;;;;;23.32;54.06;100470.10;2276826;77;50423;-74
2022/09/10 13:02:32;;;;;;;;;;;;;;;23.33;54.05;100467.72;2227363;78;52620;-74
2022/09/10 13:05:47;;;;;;;;;;;;;;;23.34;54.02;100465.31;2259446;77;50741;-74
2022/09/10 13:08:49;;;;;;;;;;;;;;;23.36;54.09;100458.36;2250372;77;51422;-74
2022/09/10 13:11:52;;;;;;;;;;;;;;;23.35;54.29;100468.84;2277076;77;50387;-74
2022/09/10 13:14:56;;;;;;;;;;;;;;;23.34;54.36;100461.80;2228564;78;49582;-74
2022/09/10 13:18:00;;;;;;;;;;;;;;;23.37;54.13;100460.00;2260623;77;50702;-74
2022/09/10 13:21:21;;;;;;;;;;;;;;;23.36;54.10;100459.70;2262766;77;51587;-73
2022/09/10 13:24:37;;;;;;;;;;;;;;;23.34;54.12;100457.22;2290553;76;51663;-75
2022/09/10 13:27:39;;;;;;;;;;;;;;;23.35;54.34;100452.14;2265716;78;50142;-73
2022/09/10 13:30:40;;;;;;;;;;;;;;;23.37;54.41;100462.70;2260015;78;50021;-76
2022/09/10 13:33:50;;;;;;;;;;;;;;;23.41;54.23;100458.00;2286938;76;50386;-74
2022/09/10 13:36:54;;;;;;;;;;;;;;;23.35;54.62;100456.19;2286853;77;51520;-74
2022/09/10 13:40:05;;;;;;;;;;;;;;;23.99;53.09;100456.05;2259345;77;51647;-74
2022/09/10 13:43:08;;;;;;;;;;;;;;;24.27;52.48;100455.53;2295346;77;51512;-78
2022/09/10 13:46:11;;;;;;;;;;;;;;;24.27;52.54;100450.95;2295133;76;50696;-77
2022/09/10 13:49:19;;;;;;;;;;;;;;;24.05;53.05;100457.34;2295431;77;50667;-78
2022/09/10 13:52:21;;;;;;;;;;;;;;;23.89;53.35;100454.70;2295477;77;50685;-75
2022/09/10 13:55:24;;;;;;;;;;;;;;;23.79;53.41;100455.73;2294834;76;51567;-79
2022/09/10 13:58:27;;;;;;;;;;;;;;;23.73;53.07;100455.78;2296767;77;51727;-77
2022/09/10 14:01:47;;;;;;;;;;;;;;;23.66;52.96;100458.50;2297787;77;50504;-78
2022/09/10 14:04:50;;;;;;;;;;;;;;;23.61;52.83;100451.59;2273737;77;50020;-78
2022/09/10 14:07:53;;;;;;;;;;;;;;;23.56;52.71;100451.45;2262173;77;50705;-78
2022/09/10 14:10:57;;;;;;;;;;;;;;;23.57;52.16;100444.46;2295659;77;50737;-78
2022/09/10 14:14:00;;;;;;;;;;;;;;;23.56;51.67;100444.17;2295400;76;50652;-78
2022/09/10 14:17:06;;;;;;;;;;;;;;;23.51;50.89;100452.11;2244365;78;51075;-75
2022/09/10 14:20:09;;;;;;;;;;;;;;;23.42;51.38;100464.22;2256406;77;51388;-76
2022/09/10 14:23:14;;;;;;;;;;;;;;;23.38;51.58;100459.80;2255315;77;51489;-77
2022/09/10 14:26:22;;;;;;;;;;;;;;;23.37;51.77;100470.80;2256788;77;50438;-75
2022/09/10 14:29:23;;;;;;;;;;;;;;;23.36;51.92;100521.28;2256595;77;22309;-76
2022/09/10 14:32:32;;;;;;;;;;;;;;;23.37;52.11;100482.95;2256906;77;51479;-75
2022/09/10 14:35:38;;;;;;;;;;;;;;;23.37;52.19;100478.91;2256630;77;50267;-76
2022/09/10 14:38:41;;;;;;;;;;;;;;;23.36;52.22;100477.26;2247887;77;50690;-76
2022/09/10 14:41:42;;;;;;;;;;;;;;;23.32;51.96;100478.20;2271424;77;49648;-76
2022/09/10 14:44:45;;;;;;;;;;;;;;;23.28;52.45;100476.18;2263667;77;50274;-77
2022/09/10 14:47:53;;;;;;;;;;;;;;;23.19;53.16;100479.12;2257215;78;50858;-76
2022/09/10 14:51:13;;;;;;;;;;;;;;;23.10;53.69;100475.58;2260596;78;50830;-76
2022/09/10 14:54:14;;;;;;;;;;;;;;;23.09;53.91;100466.63;2228888;77;51437;-78
2022/09/10 14:57:16;;;;;;;;;;;;;;;23.13;53.75;100461.11;2253656;78;50652;-79
2022/09/10 15:00:18;;;;;;;;;;;;;;;23.14;54.64;100454.66;2262693;78;51476;-78
2022/09/10 15:03:19;;;;;;;;;;;;;;;23.03;54.88;100450.78;2261958;78;51456;-79
2022/09/10 15:06:21;;;;;;;;;;;;;;;23.02;55.48;100444.27;2226756;78;50937;-78
2022/09/10 15:09:23;;;;;;;;;;;;;;;22.99;55.96;100444.69;2262674;77;50726;-78
2022/09/10 15:12:25;;;;;;;;;;;;;;;22.93;56.19;100442.83;2254420;77;50450;-78
2022/09/10 15:15:28;;;;;;;;;;;;;;;22.95;55.41;100450.20;2249180;78;50758;-78
2022/09/10 15:18:30;;;;;;;;;;;;;;;22.91;55.87;100450.31;2200815;79;49781;-78
2022/09/10 15:21:31;;;;;;;;;;;;;;;22.83;55.87;100450.04;2224612;79;50729;-78
2022/09/10 15:24:33;;;;;;;;;;;;;;;22.79;55.86;100460.45;2250186;78;50264;-78
2022/09/10 15:27:35;;;;;;;;;;;;;;;22.83;55.72;100463.53;2251577;79;50758;-78
2022/09/10 15:30:36;;;;;;;;;;;;;;;22.82;55.61;100455.97;2227664;79;50686;-78
2022/09/10 15:33:38;;;;;;;;;;;;;;;22.84;55.86;100454.41;2224413;78;51517;-78
2022/09/10 15:36:40;;;;;;;;;;;;;;;22.76;55.69;100454.64;2250308;78;50335;-78
2022/09/10 15:39:42;;;;;;;;;;;;;;;22.72;55.47;100452.91;2215970;79;50408;-79
2022/09/10 15:42:44;;;;;;;;;;;;;;;22.70;55.42;100454.98;2190070;80;50883;-77